createdAt,value
2018-03-20T00:00:51.622Z,8.70
2018-03-20T00:03:19.987Z,10.43
2018-03-20T00:05:48.304Z,8.67
2018-03-20T00:08:16.609Z,9.77
2018-03-20T00:10:45.031Z,10.07
2018-03-20T00:13:13.662Z,8.73
2018-03-20T00:15:42.178Z,10.50
2018-03-20T00:18:10.553Z,11.00
2018-03-20T00:20:39.115Z,11.20
2018-03-20T00:23:07.665Z,12.00
2018-03-20T00:25:36.033Z,12.07
2018-03-20T00:28:04.398Z,13.00
2018-03-20T00:30:32.811Z,11.63
2018-03-20T00:33:01.137Z,12.00
2018-03-20T00:35:29.593Z,10.50
2018-03-20T00:37:58.025Z,11.83
2018-03-20T00:40:26.368Z,12.63
2018-03-20T00:42:54.673Z,12.40
2018-03-20T00:45:23.049Z,12.43
2018-03-20T00:47:51.388Z,11.80
2018-03-20T00:50:20.208Z,12.63
2018-03-20T00:52:48.631Z,12.83
2018-03-20T00:55:16.949Z,12.97
2018-03-20T00:57:45.312Z,13.20
2018-03-20T01:00:13.691Z,12.23
2018-03-20T01:02:42.748Z,12.80
2018-03-20T01:05:11.134Z,13.67
2018-03-20T01:07:39.479Z,13.10
2018-03-20T01:10:07.844Z,12.30
2018-03-20T01:12:36.202Z,12.80
2018-03-20T01:15:04.512Z,11.70
2018-03-20T01:17:32.930Z,11.70
2018-03-20T01:20:01.232Z,12.27
2018-03-20T01:22:29.638Z,11.57
2018-03-20T01:24:58.104Z,13.03
2018-03-20T01:27:26.535Z,12.13
2018-03-20T01:29:54.859Z,11.87
2018-03-20T01:32:23.192Z,12.27
2018-03-20T01:34:51.525Z,11.37
2018-03-20T01:37:19.845Z,12.47
2018-03-20T01:39:48.177Z,10.73
2018-03-20T01:42:16.532Z,13.80
2018-03-20T01:44:45.190Z,13.60
2018-03-20T01:47:13.573Z,12.40
2018-03-20T01:49:42.638Z,12.30
2018-03-20T01:52:10.992Z,12.30
2018-03-20T01:54:39.364Z,12.30
2018-03-20T01:57:07.723Z,13.53
2018-03-20T01:59:36.396Z,11.47
2018-03-20T02:02:04.758Z,12.07
2018-03-20T02:04:33.138Z,13.70
2018-03-20T02:07:01.495Z,12.73
2018-03-20T02:09:29.899Z,13.17
2018-03-20T02:11:58.320Z,12.40
2018-03-20T02:14:26.652Z,13.93
2018-03-20T02:16:54.984Z,11.93
2018-03-20T02:19:23.381Z,13.80
2018-03-20T02:21:51.718Z,12.73
2018-03-20T02:24:20.037Z,14.07
2018-03-20T02:26:48.398Z,12.87
2018-03-20T02:29:16.844Z,11.83
2018-03-20T02:31:45.189Z,11.33
2018-03-20T02:34:13.553Z,12.87
2018-03-20T02:36:41.879Z,13.00
2018-03-20T02:39:10.234Z,13.50
2018-03-20T02:41:38.574Z,13.20
2018-03-20T02:44:06.919Z,12.37
2018-03-20T02:46:35.247Z,12.60
2018-03-20T02:49:03.568Z,12.33
2018-03-20T02:51:31.933Z,12.97
2018-03-20T02:54:00.257Z,13.20
2018-03-20T02:56:28.578Z,13.17
2018-03-20T02:58:56.911Z,12.70
2018-03-20T03:01:25.378Z,13.37
2018-03-20T03:03:53.716Z,12.97
2018-03-20T03:06:22.057Z,12.00
2018-03-20T03:08:50.374Z,13.23
2018-03-20T03:11:18.809Z,12.63
2018-03-20T03:13:47.124Z,13.53
2018-03-20T03:16:15.484Z,13.27
2018-03-20T03:18:44.487Z,12.80
2018-03-20T03:21:12.856Z,13.23
2018-03-20T03:23:41.210Z,13.07
2018-03-20T03:26:09.586Z,13.23
2018-03-20T03:28:38.041Z,12.50
2018-03-20T03:31:06.418Z,13.87
2018-03-20T03:33:34.746Z,14.10
2018-03-20T03:36:03.173Z,14.27
2018-03-20T03:38:31.510Z,13.30
2018-03-20T03:40:59.923Z,13.60
2018-03-20T03:43:28.237Z,14.73
2018-03-20T03:45:56.608Z,14.50
2018-03-20T03:48:24.982Z,13.47
2018-03-20T03:50:53.417Z,13.97
2018-03-20T03:53:21.775Z,13.83
2018-03-20T03:55:50.159Z,14.00
2018-03-20T03:58:18.552Z,13.93
2018-03-20T04:00:46.888Z,14.43
2018-03-20T04:03:15.271Z,15.17
2018-03-20T04:05:43.698Z,13.43
2018-03-20T04:08:12.066Z,13.17
2018-03-20T04:10:40.443Z,13.87
2018-03-20T04:13:08.813Z,14.43
2018-03-20T04:15:37.299Z,15.18
2018-03-20T04:18:05.658Z,16.17
2018-03-20T04:20:33.980Z,16.90
2018-03-20T04:23:02.322Z,15.20
2018-03-20T04:25:30.644Z,15.80
2018-03-20T04:27:58.981Z,15.97
2018-03-20T04:30:27.321Z,15.88
2018-03-20T04:32:55.683Z,16.93
2018-03-20T04:35:24.030Z,15.33
2018-03-20T04:37:52.377Z,15.57
2018-03-20T04:40:20.700Z,15.47
2018-03-20T04:42:49.042Z,17.43
2018-03-20T04:45:17.390Z,15.73
2018-03-20T04:47:45.732Z,16.85
2018-03-20T04:50:14.222Z,15.43
2018-03-20T04:52:42.557Z,15.20
2018-03-20T04:55:10.910Z,17.10
2018-03-20T04:57:39.281Z,16.17
2018-03-20T05:00:07.671Z,15.95
2018-03-20T05:02:36.176Z,17.43
2018-03-20T05:05:04.488Z,14.93
2018-03-20T05:07:33.323Z,14.90
2018-03-20T05:10:01.735Z,15.50
2018-03-20T05:12:30.065Z,18.60
2018-03-20T05:14:58.430Z,16.25
2018-03-20T05:17:26.769Z,15.60
2018-03-20T05:19:56.019Z,16.73
2018-03-20T05:22:30.153Z,15.35
2018-03-20T05:24:58.504Z,16.13
2018-03-20T05:27:26.855Z,15.57
2018-03-20T05:29:55.193Z,14.60
2018-03-20T05:32:23.544Z,16.83
2018-03-20T05:34:51.888Z,15.97
2018-03-20T05:37:20.206Z,15.33
2018-03-20T05:39:48.534Z,15.57
2018-03-20T05:42:16.852Z,15.30
2018-03-20T05:44:45.219Z,15.47
2018-03-20T05:50:27.719Z,13.13
2018-03-20T05:52:56.032Z,13.33
2018-03-20T05:55:24.544Z,12.20
2018-03-20T05:57:52.878Z,12.07
2018-03-20T06:00:21.261Z,12.70
2018-03-20T06:02:49.589Z,12.73
2018-03-20T06:05:17.932Z,13.07
2018-03-20T06:07:46.274Z,12.43
2018-03-20T06:10:14.617Z,12.13
2018-03-20T06:12:42.978Z,11.00
2018-03-20T06:15:11.314Z,11.37
2018-03-20T06:17:39.748Z,10.87
2018-03-20T06:20:08.081Z,9.63
2018-03-20T06:22:36.450Z,13.03
2018-03-20T06:25:04.766Z,13.27
2018-03-20T06:27:33.094Z,12.77
2018-03-20T06:30:01.536Z,13.40
2018-03-20T06:32:29.859Z,12.40
2018-03-20T06:34:58.173Z,13.13
2018-03-20T06:37:26.506Z,12.87
2018-03-20T06:39:54.840Z,15.00
2018-03-20T06:42:23.226Z,13.13
2018-03-20T06:44:51.650Z,13.40
2018-03-20T06:47:20.076Z,14.43
2018-03-20T06:49:48.422Z,14.83
2018-03-20T06:52:16.907Z,12.70
2018-03-20T06:54:45.218Z,14.13
2018-03-20T06:57:13.565Z,13.70
2018-03-20T06:59:41.904Z,14.53
2018-03-20T07:02:10.233Z,13.53
2018-03-20T07:04:38.607Z,12.27
2018-03-20T07:07:06.995Z,13.57
2018-03-20T07:09:35.344Z,13.80
2018-03-20T07:12:03.696Z,17.53
2018-03-20T07:14:32.032Z,16.83
2018-03-20T07:17:00.352Z,16.33
2018-03-20T07:19:28.720Z,16.40
2018-03-20T07:21:57.106Z,13.43
2018-03-20T07:24:25.523Z,15.43
2018-03-20T07:26:53.838Z,14.37
2018-03-20T07:29:22.185Z,13.50
2018-03-20T07:31:50.502Z,12.13
2018-03-20T07:34:19.579Z,11.63
2018-03-20T07:36:47.908Z,11.20
2018-03-20T07:39:16.228Z,14.50
2018-03-20T07:41:44.566Z,18.87
2018-03-20T07:44:12.966Z,11.10
2018-03-20T07:46:41.287Z,12.93
2018-03-20T07:49:10.946Z,12.67
2018-03-20T07:51:39.393Z,12.03
2018-03-20T07:54:07.731Z,11.30
2018-03-20T07:56:36.051Z,12.30
2018-03-20T07:59:04.373Z,12.67
2018-03-20T08:01:33.399Z,10.00
2018-03-20T08:04:01.669Z,11.53
2018-03-20T08:06:30.029Z,10.30
2018-03-20T08:08:58.420Z,9.60
2018-03-20T08:11:26.804Z,9.73
2018-03-20T08:13:55.217Z,10.30
2018-03-20T08:16:23.544Z,10.30
2018-03-20T08:18:51.894Z,9.73
2018-03-20T08:21:20.216Z,9.50
2018-03-20T08:23:48.532Z,10.37
2018-03-20T08:26:16.873Z,9.30
2018-03-20T08:28:45.260Z,9.90
2018-03-20T08:31:13.584Z,9.70
2018-03-20T08:33:41.900Z,9.60
2018-03-20T08:36:10.265Z,8.80
2018-03-20T08:38:38.573Z,9.20
2018-03-20T08:41:07.029Z,9.27
2018-03-20T08:43:35.416Z,10.27
2018-03-20T08:46:03.730Z,9.27
2018-03-20T08:48:32.037Z,10.93
2018-03-20T08:51:00.380Z,10.10
2018-03-20T08:53:28.782Z,10.23
2018-03-20T08:55:57.264Z,9.03
2018-03-20T08:58:25.673Z,9.43
2018-03-20T09:00:54.048Z,9.10
2018-03-20T09:03:22.370Z,8.67
2018-03-20T09:05:50.733Z,9.70
2018-03-20T09:08:19.120Z,9.33
2018-03-20T09:10:47.514Z,8.93
2018-03-20T09:13:15.909Z,8.63
2018-03-20T09:15:44.300Z,10.03
2018-03-20T09:18:12.634Z,9.27
2018-03-20T09:20:40.993Z,7.33
2018-03-20T09:23:09.362Z,8.67
2018-03-20T09:25:37.681Z,7.40
2018-03-20T09:28:06.011Z,8.87
2018-03-20T09:30:34.348Z,9.40
2018-03-20T09:33:02.667Z,9.37
2018-03-20T09:35:31.054Z,9.53
2018-03-20T09:37:59.355Z,8.90
2018-03-20T09:40:27.720Z,8.27
2018-03-20T09:42:56.047Z,9.30
2018-03-20T09:45:24.370Z,9.87
2018-03-20T09:47:52.804Z,8.70
2018-03-20T09:50:21.108Z,7.53
2018-03-20T09:52:49.424Z,7.47
2018-03-20T09:55:17.741Z,8.90
2018-03-20T09:57:46.164Z,7.67
2018-03-20T10:00:14.472Z,8.77
2018-03-20T10:02:42.883Z,9.33
2018-03-20T10:05:11.206Z,8.10
2018-03-20T10:07:39.611Z,7.77
2018-03-20T10:10:07.945Z,7.77
2018-03-20T10:12:36.249Z,8.67
2018-03-20T10:15:04.590Z,7.23
2018-03-20T10:17:33.088Z,8.07
2018-03-20T10:20:01.435Z,7.30
2018-03-20T10:22:29.743Z,7.77
2018-03-20T10:24:58.121Z,8.23
2018-03-20T10:27:26.383Z,7.83
2018-03-20T10:29:54.740Z,8.13
2018-03-20T10:32:23.043Z,8.03
2018-03-20T10:34:51.355Z,7.37
2018-03-20T10:37:19.664Z,7.60
2018-03-20T10:39:48.062Z,6.60
2018-03-20T10:42:16.385Z,7.33
2018-03-20T10:44:44.796Z,6.37
2018-03-20T10:47:13.100Z,5.80
2018-03-20T10:49:41.483Z,6.83
2018-03-20T10:52:09.869Z,6.33
2018-03-20T10:54:38.255Z,6.13
2018-03-20T10:57:06.566Z,7.50
2018-03-20T10:59:34.888Z,7.93
2018-03-20T11:02:08.906Z,7.60
2018-03-20T11:04:37.229Z,7.73
2018-03-20T11:07:05.612Z,8.40
2018-03-20T11:09:33.973Z,8.87
2018-03-20T11:12:02.286Z,8.00
2018-03-20T11:14:30.617Z,7.30
2018-03-20T11:16:58.965Z,8.13
2018-03-20T11:19:27.284Z,8.60
2018-03-20T11:21:55.601Z,9.33
2018-03-20T11:24:23.899Z,7.40
2018-03-20T11:26:52.229Z,8.17
2018-03-20T11:29:20.548Z,7.20
2018-03-20T11:31:48.875Z,8.57
2018-03-20T11:34:17.245Z,7.43
2018-03-20T11:36:45.620Z,7.43
2018-03-20T11:39:13.950Z,7.53
2018-03-20T11:41:42.248Z,7.87
2018-03-20T11:44:10.553Z,7.63
2018-03-20T11:46:38.973Z,7.90
2018-03-20T11:49:07.285Z,8.90
2018-03-20T11:51:35.609Z,7.60
2018-03-20T11:54:03.928Z,7.90
2018-03-20T11:56:32.252Z,7.00
2018-03-20T11:59:00.644Z,7.73
2018-03-20T12:01:28.956Z,7.50
2018-03-20T12:03:57.318Z,9.13
2018-03-20T12:06:25.620Z,7.33
2018-03-20T12:08:59.732Z,8.37
2018-03-20T12:11:28.033Z,8.30
2018-03-20T12:13:56.352Z,8.93
2018-03-20T12:16:24.652Z,7.93
2018-03-20T12:18:53.222Z,8.17
2018-03-20T12:21:21.535Z,7.77
2018-03-20T12:23:49.863Z,7.67
2018-03-20T12:26:18.193Z,8.43
2018-03-20T12:28:46.586Z,8.77
2018-03-20T12:31:14.967Z,8.33
2018-03-20T12:33:43.370Z,8.70
2018-03-20T12:36:11.681Z,8.80
2018-03-20T12:38:40.021Z,9.03
2018-03-20T12:41:08.355Z,8.33
2018-03-20T12:43:36.701Z,8.60
2018-03-20T12:46:05.010Z,8.37
2018-03-20T12:48:33.408Z,8.60
2018-03-20T12:51:01.720Z,8.47
2018-03-20T12:53:30.106Z,8.73
2018-03-20T12:55:58.423Z,8.43
2018-03-20T12:58:26.721Z,7.97
2018-03-20T13:00:55.054Z,8.47
2018-03-20T13:03:23.358Z,9.90
2018-03-20T13:05:51.757Z,9.53
2018-03-20T13:08:20.066Z,9.73
2018-03-20T13:10:48.384Z,9.60
2018-03-20T13:13:16.799Z,9.87
2018-03-20T13:15:45.121Z,8.67
2018-03-20T13:18:13.412Z,8.10
2018-03-20T13:20:41.916Z,9.93
2018-03-20T13:23:10.270Z,8.23
2018-03-20T13:25:38.588Z,8.97
2018-03-20T13:28:07.258Z,9.90
2018-03-20T13:30:35.597Z,10.33
2018-03-20T13:33:03.913Z,10.83
2018-03-20T13:35:32.327Z,9.63
2018-03-20T13:38:00.669Z,9.63
2018-03-20T13:40:29.041Z,8.57
2018-03-20T13:42:57.462Z,9.70
2018-03-20T13:45:25.770Z,9.60
2018-03-20T13:47:54.085Z,10.47
2018-03-20T13:50:22.840Z,8.80
2018-03-20T13:52:51.199Z,9.57
2018-03-20T13:55:19.522Z,10.97
2018-03-20T13:57:47.884Z,11.27
2018-03-20T14:00:16.207Z,12.67
2018-03-20T14:02:44.558Z,13.50
2018-03-20T14:05:12.883Z,11.70
2018-03-20T14:07:41.282Z,12.10
2018-03-20T14:10:09.637Z,12.57
2018-03-20T14:12:37.960Z,11.53
2018-03-20T14:15:06.331Z,13.03
2018-03-20T14:17:34.723Z,13.10
2018-03-20T14:20:03.113Z,13.20
2018-03-20T14:22:31.430Z,13.53
2018-03-20T14:24:59.748Z,13.20
2018-03-20T14:27:28.178Z,14.40
2018-03-20T14:29:56.503Z,14.70
2018-03-20T14:32:24.839Z,16.40
2018-03-20T14:34:53.156Z,15.60
2018-03-20T14:37:21.548Z,16.67
2018-03-20T14:39:49.870Z,16.00
2018-03-20T14:42:18.208Z,15.80
2018-03-20T14:44:46.540Z,16.83
2018-03-20T14:47:14.882Z,17.53
2018-03-20T14:49:43.205Z,18.00
2018-03-20T14:52:11.596Z,19.10
2018-03-20T14:54:39.955Z,19.20
2018-03-20T14:57:08.269Z,19.73
2018-03-20T14:59:36.605Z,20.87
2018-03-20T15:02:04.948Z,21.03
2018-03-20T15:04:33.588Z,28.53
2018-03-20T15:07:01.900Z,21.67
2018-03-20T15:09:30.232Z,20.47
2018-03-20T15:11:58.570Z,19.00
2018-03-20T15:14:26.901Z,18.73
2018-03-20T15:16:55.228Z,18.73
2018-03-20T15:19:23.561Z,18.17
2018-03-20T15:21:51.892Z,18.13
2018-03-20T15:24:22.147Z,20.23
2018-03-20T15:26:50.460Z,19.00
2018-03-20T15:29:19.837Z,18.77
2018-03-20T15:31:48.151Z,18.53
2018-03-20T15:34:16.476Z,19.83
2018-03-20T15:36:45.274Z,19.67
2018-03-20T15:39:13.725Z,20.13
2018-03-20T15:41:42.160Z,19.37
2018-03-20T15:44:10.574Z,18.27
2018-03-20T15:46:38.918Z,20.53
2018-03-20T15:49:07.274Z,19.50
2018-03-20T15:51:35.651Z,21.60
2018-03-20T15:54:03.993Z,19.40
2018-03-20T15:56:32.337Z,20.43
2018-03-20T15:59:00.955Z,21.20
2018-03-20T16:01:29.653Z,20.20
2018-03-20T16:03:57.992Z,21.30
2018-03-20T16:06:26.354Z,22.50
2018-03-20T16:08:54.741Z,21.77
2018-03-20T16:11:23.136Z,23.70
2018-03-20T16:13:51.532Z,23.47
2018-03-20T16:16:19.881Z,23.23
2018-03-20T16:18:48.200Z,24.87
2018-03-20T16:21:16.576Z,26.03
2018-03-20T16:23:44.945Z,26.67
2018-03-20T16:26:13.299Z,28.37
2018-03-20T16:28:41.606Z,27.33
2018-03-20T16:31:09.937Z,26.40
2018-03-20T16:33:38.267Z,25.57
2018-03-20T16:36:06.632Z,27.97
2018-03-20T16:38:34.992Z,29.83
2018-03-20T16:41:03.361Z,28.00
2018-03-20T16:43:31.666Z,27.00
2018-03-20T16:46:00.203Z,28.80
2018-03-20T16:48:28.527Z,25.70
2018-03-20T16:50:57.422Z,33.17
2018-03-20T16:53:25.767Z,26.80
2018-03-20T16:55:54.103Z,28.90
2018-03-20T16:58:22.449Z,28.37
2018-03-20T17:00:50.850Z,29.13
2018-03-20T17:03:19.169Z,26.53
2018-03-20T17:05:47.509Z,25.50
2018-03-20T17:08:15.935Z,27.17
2018-03-20T17:10:44.250Z,25.40
2018-03-20T17:13:12.626Z,26.07
2018-03-20T17:15:41.005Z,25.43
2018-03-20T17:18:09.415Z,25.53
2018-03-20T17:20:37.753Z,23.40
2018-03-20T17:23:06.193Z,24.10
2018-03-20T17:25:34.507Z,23.70
2018-03-20T17:28:02.919Z,24.60
2018-03-20T17:30:31.243Z,26.00
2018-03-20T17:32:59.593Z,26.70
2018-03-20T17:35:28.358Z,29.00
2018-03-20T17:37:56.856Z,27.40
2018-03-20T17:40:25.273Z,26.03
2018-03-20T17:42:54.026Z,26.30
2018-03-20T17:45:22.361Z,24.27
2018-03-20T17:47:50.745Z,25.27
2018-03-20T17:50:19.275Z,25.73
2018-03-20T17:52:47.628Z,23.97
2018-03-20T17:55:16.581Z,25.13
2018-03-20T17:57:44.911Z,25.63
2018-03-20T18:00:13.256Z,23.80
2018-03-20T18:02:41.580Z,25.07
2018-03-20T18:05:09.981Z,23.20
2018-03-20T18:07:38.393Z,25.27
2018-03-20T18:10:06.724Z,24.57
2018-03-20T18:12:35.049Z,25.07
2018-03-20T18:15:03.385Z,25.60
2018-03-20T18:17:31.732Z,26.13
2018-03-20T18:20:00.083Z,27.83
2018-03-20T18:22:28.415Z,25.67
2018-03-20T18:24:56.764Z,26.77
2018-03-20T18:27:25.122Z,24.37
2018-03-20T18:29:53.545Z,27.03
2018-03-20T18:32:22.018Z,27.83
2018-03-20T18:34:50.368Z,28.83
2018-03-20T18:37:18.700Z,29.50
2018-03-20T18:39:47.043Z,27.37
2018-03-20T18:42:15.363Z,27.07
2018-03-20T18:44:43.688Z,27.17
2018-03-20T18:47:12.107Z,24.53
2018-03-20T18:49:40.438Z,26.30
2018-03-20T18:52:08.783Z,27.93
2018-03-20T18:54:37.116Z,27.40
2018-03-20T18:57:05.438Z,27.27
2018-03-20T18:59:33.761Z,28.70
2018-03-20T19:02:02.089Z,28.37
2018-03-20T19:04:30.420Z,27.73
2018-03-20T19:06:58.796Z,28.00
2018-03-20T19:09:27.196Z,25.80
2018-03-20T19:11:55.537Z,26.40
2018-03-20T19:14:23.871Z,26.67
2018-03-20T19:16:52.251Z,27.53
2018-03-20T19:19:20.589Z,25.93
2018-03-20T19:21:49.008Z,27.17
2018-03-20T19:24:18.260Z,28.00
2018-03-20T19:26:46.604Z,29.77
2018-03-20T19:29:14.951Z,29.20
2018-03-20T19:31:43.342Z,29.13
2018-03-20T19:34:11.656Z,29.70
2018-03-20T19:36:39.986Z,31.10
2018-03-20T19:39:08.380Z,29.77
2018-03-20T19:41:36.729Z,30.03
2018-03-20T19:44:05.060Z,30.30
2018-03-20T19:46:33.477Z,34.13
2018-03-20T19:49:01.800Z,32.67
2018-03-20T19:51:30.140Z,29.93
2018-03-20T19:53:58.572Z,33.23
2018-03-20T19:56:26.928Z,32.33
2018-03-20T19:58:55.334Z,32.30
2018-03-20T20:01:23.733Z,31.93
2018-03-20T20:03:52.115Z,33.00
2018-03-20T20:06:20.437Z,31.73
2018-03-20T20:08:48.940Z,31.60
2018-03-20T20:11:17.275Z,32.00
2018-03-20T20:13:45.609Z,28.13
2018-03-20T20:16:14.526Z,27.83
2018-03-20T20:18:42.886Z,26.47
2018-03-20T20:21:11.212Z,26.90
2018-03-20T20:23:39.544Z,23.60
2018-03-20T20:26:07.953Z,25.00
2018-03-20T20:28:36.347Z,21.57
2018-03-20T20:31:04.735Z,22.93
2018-03-20T20:33:33.125Z,22.60
2018-03-20T20:36:01.446Z,23.07
2018-03-20T20:38:29.845Z,23.90
2018-03-20T20:40:58.180Z,22.23
2018-03-20T20:43:26.506Z,21.40
2018-03-20T20:45:54.880Z,22.23
2018-03-20T20:48:23.304Z,21.67
2018-03-20T20:50:51.633Z,22.00
2018-03-20T20:53:20.012Z,19.87
2018-03-20T20:55:48.369Z,21.13
2018-03-20T20:58:16.726Z,19.63
2018-03-20T21:00:45.096Z,18.33
2018-03-20T21:03:13.426Z,17.77
2018-03-20T21:05:41.774Z,16.10
2018-03-20T21:08:10.097Z,14.10
2018-03-20T21:10:38.452Z,13.30
2018-03-20T21:13:06.776Z,11.33
2018-03-20T21:15:35.194Z,11.33
2018-03-20T21:18:03.508Z,10.17
2018-03-20T21:20:31.839Z,9.13
2018-03-20T21:23:00.143Z,9.23
2018-03-20T21:25:28.470Z,9.43
2018-03-20T21:27:56.962Z,8.47
2018-03-20T21:30:25.136Z,7.73
2018-03-20T21:32:53.541Z,7.90
2018-03-20T21:35:21.919Z,7.50
2018-03-20T21:37:50.327Z,8.13
2018-03-20T21:40:18.739Z,7.60
2018-03-20T21:42:47.083Z,7.63
2018-03-20T21:45:15.448Z,7.53
2018-03-20T21:47:43.779Z,6.47
2018-03-20T21:50:12.135Z,6.93
2018-03-20T21:52:40.531Z,5.63
2018-03-20T21:55:09.078Z,6.20
2018-03-20T21:57:37.388Z,5.73
2018-03-20T22:00:05.757Z,4.53
2018-03-20T22:02:34.089Z,4.77
2018-03-20T22:05:02.446Z,4.10
2018-03-20T22:07:30.845Z,4.60
2018-03-20T22:09:59.675Z,4.77
2018-03-20T22:12:28.010Z,4.63
2018-03-20T22:14:56.561Z,4.40
2018-03-20T22:17:24.956Z,4.20
2018-03-20T22:19:53.270Z,4.10
2018-03-20T22:22:21.594Z,4.30
2018-03-20T22:24:50.028Z,3.63
2018-03-20T22:27:18.404Z,3.73
2018-03-20T22:29:46.740Z,3.87
2018-03-20T22:32:15.117Z,4.10
2018-03-20T22:34:43.476Z,4.03
2018-03-20T22:37:11.831Z,3.80
2018-03-20T22:39:40.174Z,3.73
2018-03-20T22:42:08.565Z,3.53
2018-03-20T22:44:36.965Z,3.27
2018-03-20T22:47:05.410Z,3.13
2018-03-20T22:49:33.775Z,3.27
2018-03-20T22:52:02.202Z,2.90
2018-03-20T22:54:30.521Z,3.47
2018-03-20T22:56:58.952Z,3.00
2018-03-20T22:59:27.545Z,3.87
2018-03-20T23:01:55.961Z,3.57
2018-03-20T23:04:24.522Z,2.87
2018-03-20T23:06:53.056Z,2.60
2018-03-20T23:09:21.396Z,2.93
2018-03-20T23:11:49.712Z,3.00
2018-03-20T23:14:18.055Z,4.00
2018-03-20T23:16:46.393Z,2.30
2018-03-20T23:19:14.712Z,3.53
2018-03-20T23:21:43.123Z,2.87
2018-03-20T23:24:11.461Z,3.10
2018-03-20T23:26:39.784Z,3.30
2018-03-20T23:29:08.133Z,2.83
2018-03-20T23:31:36.448Z,3.43
2018-03-20T23:34:04.773Z,3.37
2018-03-20T23:36:33.089Z,3.30
2018-03-20T23:39:01.438Z,3.00
2018-03-20T23:41:29.771Z,2.90
2018-03-20T23:43:58.088Z,3.50
2018-03-20T23:46:26.405Z,3.37
2018-03-20T23:48:54.810Z,2.30
2018-03-20T23:51:23.137Z,3.60
2018-03-20T23:53:51.458Z,3.17
2018-03-20T23:56:19.773Z,2.70
2018-03-20T23:58:48.083Z,3.07
